createdAt,value
2022-11-12T00:00:16.943Z,17.40
2022-11-12T00:03:02.628Z,13.57
2022-11-12T00:05:51.506Z,12.90
2022-11-12T00:08:37.263Z,11.88
2022-11-12T00:11:22.737Z,14.32
2022-11-12T00:14:08.372Z,16.60
2022-11-12T00:16:53.685Z,14.93
2022-11-12T00:19:39.276Z,15.57
2022-11-12T00:22:24.791Z,15.85
2022-11-12T00:25:10.610Z,11.48
2022-11-12T00:28:02.374Z,14.18
2022-11-12T00:30:48.220Z,14.88
2022-11-12T00:33:33.485Z,11.30
2022-11-12T00:36:19.044Z,10.95
2022-11-12T00:39:04.961Z,15.35
2022-11-12T00:41:50.686Z,17.60
2022-11-12T00:44:36.030Z,12.93
2022-11-12T00:47:21.432Z,16.70
2022-11-12T00:50:07.892Z,14.60
2022-11-12T00:52:54.662Z,12.70
2022-11-12T00:55:40.186Z,16.25
2022-11-12T00:58:25.730Z,13.73
2022-11-12T01:01:14.154Z,14.88
2022-11-12T01:04:00.499Z,12.65
2022-11-12T01:06:45.922Z,18.83
2022-11-12T01:09:31.690Z,21.88
2022-11-12T01:12:17.063Z,15.10
2022-11-12T01:15:02.772Z,12.20
2022-11-12T01:17:48.200Z,11.25
2022-11-12T01:20:33.789Z,12.43
2022-11-12T01:23:19.511Z,17.65
2022-11-12T01:26:07.167Z,17.42
2022-11-12T01:28:53.290Z,15.27
2022-11-12T01:31:38.897Z,12.68
2022-11-12T01:34:26.065Z,12.95
2022-11-12T01:37:11.924Z,15.18
2022-11-12T01:39:57.323Z,12.88
2022-11-12T01:42:43.028Z,13.05
2022-11-12T01:45:29.162Z,11.32
2022-11-12T01:48:27.959Z,15.65
2022-11-12T01:51:15.455Z,13.50
2022-11-12T01:54:05.569Z,11.88
2022-11-12T01:56:51.643Z,11.95
2022-11-12T01:59:44.150Z,12.55
2022-11-12T02:02:30.653Z,10.93
2022-11-12T02:05:18.394Z,11.52
2022-11-12T02:08:06.165Z,11.25
2022-11-12T02:10:52.003Z,14.35
2022-11-12T02:13:56.532Z,12.25
2022-11-12T02:16:45.367Z,17.05
2022-11-12T02:19:30.717Z,10.23
2022-11-12T02:22:16.338Z,15.38
2022-11-12T02:25:01.677Z,12.75
2022-11-12T02:27:52.001Z,13.35
2022-11-12T02:30:46.893Z,14.55
2022-11-12T02:33:32.444Z,16.80
2022-11-12T02:36:18.136Z,11.07
2022-11-12T02:39:05.966Z,11.40
2022-11-12T02:41:51.442Z,12.35
2022-11-12T02:44:37.342Z,10.00
2022-11-12T02:47:22.984Z,12.85
2022-11-12T02:50:08.992Z,11.15
2022-11-12T02:52:54.394Z,16.35
2022-11-12T02:55:40.017Z,15.20
2022-11-12T02:58:25.917Z,16.10
2022-11-12T03:01:11.763Z,13.85
2022-11-12T03:03:57.397Z,11.48
2022-11-12T03:06:42.837Z,17.17
2022-11-12T03:09:28.522Z,14.88
2022-11-12T03:12:14.127Z,14.65
2022-11-12T03:14:59.503Z,14.25
2022-11-12T03:17:45.106Z,17.73
2022-11-12T03:20:30.659Z,13.43
2022-11-12T03:23:15.936Z,16.83
2022-11-12T03:26:05.479Z,15.80
2022-11-12T03:28:51.889Z,17.60
2022-11-12T03:31:37.405Z,15.73
2022-11-12T03:34:22.815Z,16.27
2022-11-12T03:37:09.713Z,15.10
2022-11-12T03:39:55.354Z,12.65
2022-11-12T03:42:48.773Z,12.00
2022-11-12T03:45:34.536Z,11.88
2022-11-12T03:48:19.896Z,13.32
2022-11-12T03:51:05.502Z,15.07
2022-11-12T03:53:50.979Z,12.82
2022-11-12T06:01:19.651Z,13.32
2022-11-12T06:04:04.335Z,19.83
2022-11-12T06:06:50.459Z,18.83
2022-11-12T06:09:36.465Z,28.88
2022-11-12T06:12:22.403Z,21.17
2022-11-12T06:15:08.846Z,19.02
2022-11-12T06:17:55.167Z,23.88
2022-11-12T06:20:41.206Z,25.48
2022-11-12T06:23:27.083Z,26.08
2022-11-12T06:26:12.518Z,30.88
2022-11-12T06:28:57.991Z,27.58
2022-11-12T06:31:43.786Z,32.83
2022-11-12T06:34:29.240Z,27.23
2022-11-12T06:37:16.109Z,41.15
2022-11-12T06:40:02.286Z,30.02
2022-11-12T06:42:48.069Z,24.00
2022-11-12T06:45:33.776Z,24.95
2022-11-12T06:48:19.390Z,28.00
2022-11-12T06:51:22.521Z,29.50
2022-11-12T06:54:08.454Z,31.17
2022-11-12T06:56:54.729Z,29.08
2022-11-12T06:59:40.334Z,24.75
2022-11-12T07:02:26.093Z,27.13
2022-11-12T07:05:11.927Z,27.52
2022-11-12T07:07:57.599Z,22.40
2022-11-12T07:10:43.509Z,19.42
2022-11-12T07:13:34.045Z,17.92
2022-11-12T07:16:20.018Z,16.48
2022-11-12T07:19:05.626Z,14.95
2022-11-12T07:21:51.780Z,19.20
2022-11-12T07:24:37.616Z,17.60
2022-11-12T07:27:23.228Z,10.98
2022-11-12T07:30:09.140Z,13.05
2022-11-12T07:32:58.488Z,11.88
2022-11-12T07:35:44.488Z,14.07
2022-11-12T07:38:32.070Z,12.00
2022-11-12T07:41:25.271Z,12.07
2022-11-12T07:46:56.667Z,12.00
2022-11-12T07:49:42.640Z,12.75
2022-11-12T07:52:28.742Z,11.98
2022-11-12T07:55:14.498Z,12.57
2022-11-12T07:58:00.476Z,17.30
2022-11-12T08:00:45.907Z,12.52
2022-11-12T08:03:31.882Z,12.05
2022-11-12T08:06:17.282Z,13.07
2022-11-12T08:09:06.777Z,12.48
2022-11-12T08:11:54.569Z,10.25
2022-11-12T08:14:40.601Z,10.73
2022-11-12T08:17:25.897Z,12.00
2022-11-12T08:20:13.068Z,13.38
2022-11-12T08:23:01.392Z,9.93
2022-11-12T08:25:46.859Z,13.85
2022-11-12T08:28:34.085Z,14.32
2022-11-12T08:31:22.986Z,12.73
2022-11-12T08:34:17.437Z,12.65
2022-11-12T08:37:07.853Z,13.07
2022-11-12T08:39:53.735Z,14.18
2022-11-12T08:42:39.390Z,12.68
2022-11-12T08:45:25.457Z,12.80
2022-11-12T08:48:14.480Z,15.20
2022-11-12T08:51:05.078Z,11.05
2022-11-12T08:53:50.800Z,15.38
2022-11-12T08:56:36.661Z,12.05
2022-11-12T08:59:22.181Z,12.40
2022-11-12T09:02:12.879Z,17.58
2022-11-12T09:04:58.374Z,10.95
2022-11-12T09:07:49.958Z,14.88
2022-11-12T09:10:37.227Z,12.43
2022-11-12T09:13:22.811Z,8.65
2022-11-12T09:16:10.516Z,11.60
2022-11-12T09:18:56.281Z,8.57
2022-11-12T09:21:41.827Z,9.63
2022-11-12T09:24:27.487Z,10.05
2022-11-12T09:27:13.024Z,11.63
2022-11-12T09:29:58.405Z,10.55
2022-11-12T09:32:44.011Z,11.35
2022-11-12T09:35:30.286Z,10.48
2022-11-12T09:38:16.496Z,10.57
2022-11-12T09:41:17.800Z,9.93
2022-11-12T09:44:09.053Z,10.75
2022-11-12T09:47:02.857Z,8.82
2022-11-12T09:49:57.689Z,11.98
2022-11-12T09:52:49.047Z,11.60
2022-11-12T09:55:39.358Z,11.07
2022-11-12T09:58:26.130Z,8.15
2022-11-12T10:01:15.116Z,8.40
2022-11-12T10:04:48.817Z,11.48
2022-11-12T10:10:47.833Z,10.45
2022-11-12T16:35:19.708Z,9.77
2022-11-12T16:38:13.755Z,7.82
2022-11-12T16:40:59.324Z,10.55
2022-11-12T16:43:47.459Z,8.45
2022-11-12T16:46:40.309Z,10.60
2022-11-12T16:49:26.626Z,9.20
2022-11-12T16:52:12.587Z,9.18
2022-11-12T16:55:04.133Z,7.05
2022-11-12T16:57:50.728Z,8.13
2022-11-12T17:00:37.360Z,7.57
2022-11-12T17:03:23.139Z,7.03
2022-11-12T17:06:09.552Z,5.82
2022-11-12T17:08:55.412Z,7.43
2022-11-12T17:11:41.312Z,12.98
2022-11-12T17:14:28.669Z,7.32
2022-11-12T17:17:15.195Z,11.88
2022-11-12T17:20:01.942Z,12.23
2022-11-12T17:22:48.110Z,7.95
2022-11-12T17:25:34.483Z,9.60
2022-11-12T17:28:20.290Z,12.27
2022-11-12T17:31:13.145Z,9.48
2022-11-12T17:36:45.143Z,9.68
2022-11-12T17:39:31.594Z,11.18
2022-11-12T17:42:17.779Z,10.90
2022-11-12T17:45:03.816Z,12.35
2022-11-12T17:47:49.771Z,10.63
2022-11-12T17:50:35.783Z,13.75
2022-11-12T17:53:21.846Z,11.65
2022-11-12T17:56:09.324Z,12.60
2022-11-12T17:58:55.349Z,11.57
2022-11-12T18:01:41.110Z,12.77
2022-11-12T18:04:30.775Z,11.80
2022-11-12T18:07:17.045Z,10.82
2022-11-12T18:10:02.922Z,13.98
2022-11-12T22:30:20.067Z,3.95
2022-11-12T22:33:05.710Z,2.70
2022-11-12T22:35:52.176Z,5.35
2022-11-12T22:38:40.697Z,3.45
2022-11-12T22:41:28.890Z,4.63
2022-11-12T22:44:16.875Z,4.78
2022-11-12T22:47:02.490Z,6.63
2022-11-12T22:49:48.608Z,6.80
2022-11-12T22:52:34.186Z,5.40
2022-11-12T22:55:20.689Z,6.28
2022-11-12T22:58:07.109Z,4.20
2022-11-12T23:00:53.070Z,4.32
2022-11-12T23:03:38.974Z,4.88
2022-11-12T23:06:25.979Z,4.32
2022-11-12T23:09:16.620Z,3.15
2022-11-12T23:12:02.460Z,3.78
2022-11-12T23:14:48.043Z,3.58
2022-11-12T23:17:34.192Z,3.05
2022-11-12T23:20:19.951Z,5.13
2022-11-12T23:23:05.610Z,3.15
2022-11-12T23:25:51.341Z,3.95
2022-11-12T23:28:37.760Z,4.00
2022-11-12T23:31:27.978Z,5.03
2022-11-12T23:34:13.667Z,4.65
2022-11-12T23:36:59.282Z,3.80
2022-11-12T23:39:45.361Z,3.67
2022-11-12T23:42:31.329Z,3.60
2022-11-12T23:45:17.228Z,4.40
2022-11-12T23:48:03.296Z,3.80
2022-11-12T23:50:50.053Z,4.85
2022-11-12T23:53:37.155Z,4.05
2022-11-12T23:56:23.137Z,4.20
2022-11-12T23:59:09.031Z,2.88
